createdAt,value
2023-02-08T00:00:35.769Z,23.75
2023-02-08T00:01:39.804Z,19.73
2023-02-08T00:02:43.790Z,21.87
2023-02-08T00:03:48.575Z,19.19
2023-02-08T00:04:52.591Z,20.73
2023-02-08T00:05:56.500Z,21.27
2023-02-08T00:07:00.474Z,20.31
2023-02-08T00:08:04.558Z,19.81
2023-02-08T00:09:08.545Z,17.81
2023-02-08T00:10:12.938Z,19.19
2023-02-08T00:11:16.899Z,18.87
2023-02-08T00:12:20.820Z,23.40
2023-02-08T00:13:25.194Z,21.73
2023-02-08T00:14:29.227Z,21.87
2023-02-08T00:15:33.078Z,20.00
2023-02-08T00:16:36.995Z,19.27
2023-02-08T00:17:40.849Z,21.60
2023-02-08T00:18:44.709Z,19.67
2023-02-08T00:19:48.689Z,19.33
2023-02-08T00:20:52.758Z,20.73
2023-02-08T00:21:56.605Z,22.20
2023-02-08T00:23:00.457Z,22.33
2023-02-08T00:24:04.520Z,22.00
2023-02-08T00:25:09.023Z,21.67
2023-02-08T00:26:13.819Z,21.19
2023-02-08T00:27:18.274Z,18.87
2023-02-08T00:28:22.395Z,19.27
2023-02-08T00:29:26.521Z,20.07
2023-02-08T00:30:30.629Z,21.80
2023-02-08T00:31:34.669Z,21.80
2023-02-08T00:32:38.738Z,19.47
2023-02-08T00:33:42.750Z,20.00
2023-02-08T00:34:46.719Z,22.13
2023-02-08T00:35:50.837Z,19.12
2023-02-08T00:36:54.873Z,22.67
2023-02-08T00:37:58.902Z,21.00
2023-02-08T00:39:03.260Z,20.73
2023-02-08T00:40:07.960Z,20.40
2023-02-08T00:41:12.064Z,21.53
2023-02-08T00:42:16.091Z,22.87
2023-02-08T00:43:20.091Z,22.00
2023-02-08T00:44:24.123Z,22.62
2023-02-08T00:45:28.085Z,20.93
2023-02-08T00:46:32.097Z,24.33
2023-02-08T00:47:35.995Z,22.75
2023-02-08T00:48:39.946Z,24.00
2023-02-08T00:49:43.924Z,23.27
2023-02-08T00:51:01.960Z,24.00
2023-02-08T00:52:05.985Z,23.33
2023-02-08T00:53:09.928Z,23.00
2023-02-08T00:54:16.260Z,22.13
2023-02-08T00:55:20.366Z,21.87
2023-02-08T00:56:24.405Z,22.13
2023-02-08T00:57:28.446Z,23.87
2023-02-08T00:58:32.470Z,21.00
2023-02-08T00:59:36.414Z,22.53
2023-02-08T01:00:40.710Z,22.07
2023-02-08T01:01:44.943Z,21.73
2023-02-08T01:02:48.871Z,24.60
2023-02-08T01:03:52.898Z,22.93
2023-02-08T01:04:56.871Z,16.80
2023-02-08T01:06:07.081Z,23.33
2023-02-08T01:07:11.173Z,23.47
2023-02-08T01:08:15.662Z,21.47
2023-02-08T01:09:19.714Z,22.00
2023-02-08T01:10:23.761Z,23.07
2023-02-08T01:11:27.777Z,20.67
2023-02-08T01:12:31.797Z,18.87
2023-02-08T01:13:36.736Z,23.87
2023-02-08T01:14:41.320Z,22.47
2023-02-08T01:15:45.261Z,22.73
2023-02-08T01:16:49.651Z,21.19
2023-02-08T01:17:58.122Z,19.60
2023-02-08T01:19:03.957Z,22.73
2023-02-08T01:20:08.859Z,21.07
2023-02-08T01:21:15.647Z,22.13
2023-02-08T01:22:19.515Z,22.40
2023-02-08T01:23:23.434Z,23.27
2023-02-08T01:24:27.631Z,22.93
2023-02-08T01:25:31.742Z,21.25
2023-02-08T01:26:37.640Z,23.80
2023-02-08T01:27:41.733Z,20.40
2023-02-08T01:28:46.297Z,23.40
2023-02-08T01:29:50.258Z,20.73
2023-02-08T01:30:54.323Z,21.80
2023-02-08T01:31:58.337Z,16.25
2023-02-08T01:33:02.231Z,21.33
2023-02-08T01:34:07.656Z,23.27
2023-02-08T01:35:11.650Z,22.80
2023-02-08T01:36:16.284Z,21.07
2023-02-08T01:37:20.162Z,18.80
2023-02-08T01:38:24.013Z,22.73
2023-02-08T01:39:27.933Z,21.40
2023-02-08T01:40:31.968Z,22.87
2023-02-08T01:41:39.663Z,21.20
2023-02-08T01:42:43.636Z,21.75
2023-02-08T01:44:08.331Z,19.40
2023-02-08T01:45:18.045Z,22.81
2023-02-08T01:46:22.117Z,23.33
2023-02-08T01:47:26.754Z,22.31
2023-02-08T01:48:33.610Z,19.93
2023-02-08T01:49:38.312Z,21.53
2023-02-08T01:50:57.449Z,20.93
2023-02-08T01:52:04.341Z,23.12
2023-02-08T01:53:08.702Z,23.19
2023-02-08T01:54:14.967Z,18.40
2023-02-08T01:55:24.462Z,22.87
2023-02-08T01:56:31.403Z,22.87
2023-02-08T01:57:35.570Z,22.47
2023-02-08T01:58:42.506Z,20.50
2023-02-08T01:59:49.434Z,22.40
2023-02-08T02:00:53.806Z,20.00
2023-02-08T02:01:59.328Z,20.60
2023-02-08T02:03:04.945Z,21.31
2023-02-08T02:04:09.506Z,22.87
2023-02-08T02:05:14.530Z,23.27
2023-02-08T02:06:21.473Z,22.13
2023-02-08T02:07:28.501Z,21.13
2023-02-08T02:08:32.616Z,21.73
2023-02-08T02:09:42.326Z,22.20
2023-02-08T02:10:48.900Z,22.80
2023-02-08T02:11:56.566Z,20.87
2023-02-08T02:13:09.758Z,21.87
2023-02-08T02:14:13.962Z,23.06
2023-02-08T02:15:18.191Z,21.56
2023-02-08T02:16:22.223Z,22.27
2023-02-08T02:17:26.352Z,22.53
2023-02-08T02:18:34.247Z,21.07
2023-02-08T02:19:57.820Z,21.47
2023-02-08T02:21:40.862Z,21.06
2023-02-08T02:22:53.770Z,23.33
2023-02-08T02:24:23.008Z,20.07
2023-02-08T02:25:41.441Z,21.44
2023-02-08T02:27:07.591Z,21.56
2023-02-08T02:28:28.732Z,20.88
2023-02-08T02:29:52.029Z,23.40
2023-02-08T02:31:27.229Z,22.75
2023-02-08T02:32:34.180Z,21.93
2023-02-08T02:34:01.843Z,23.33
2023-02-08T02:35:17.546Z,24.93
2023-02-08T02:36:47.170Z,22.73
2023-02-08T02:37:56.755Z,25.00
2023-02-08T02:39:12.423Z,22.80
2023-02-08T02:42:07.951Z,25.47
2023-02-08T02:43:26.684Z,24.27
2023-02-08T02:44:49.630Z,21.12
2023-02-08T02:46:04.976Z,24.50
2023-02-08T02:47:26.857Z,25.53
2023-02-08T02:48:39.770Z,26.50
2023-02-08T02:49:49.495Z,27.50
2023-02-08T02:50:56.575Z,27.44
2023-02-08T02:52:06.158Z,28.33
2023-02-08T02:53:35.887Z,27.81
2023-02-08T02:54:47.966Z,27.44
2023-02-08T02:55:55.015Z,26.13
2023-02-08T02:57:01.983Z,25.33
2023-02-08T02:58:08.372Z,25.69
2023-02-08T02:59:14.658Z,22.19
2023-02-08T03:00:25.244Z,22.94
2023-02-08T03:01:29.390Z,24.27
2023-02-08T03:02:33.293Z,23.60
2023-02-08T03:03:37.553Z,23.00
2023-02-08T03:04:44.466Z,24.00
2023-02-08T03:05:50.068Z,22.56
2023-02-08T03:07:11.808Z,24.93
2023-02-08T03:08:33.528Z,25.07
2023-02-08T03:09:49.627Z,22.87
2023-02-08T03:11:05.290Z,24.12
2023-02-08T03:12:18.280Z,24.87
2023-02-08T03:13:43.478Z,21.69
2023-02-08T03:14:50.461Z,23.87
2023-02-08T03:16:09.065Z,25.00
2023-02-08T03:17:18.854Z,27.31
2023-02-08T03:18:25.825Z,24.47
2023-02-08T03:19:35.555Z,23.93
2023-02-08T03:20:45.295Z,22.87
2023-02-08T03:21:55.205Z,25.67
2023-02-08T03:23:04.770Z,24.73
2023-02-08T03:24:32.716Z,24.73
2023-02-08T03:25:39.627Z,22.62
2023-02-08T03:27:03.117Z,24.47
2023-02-08T03:28:10.178Z,25.80
2023-02-08T03:29:36.314Z,24.94
2023-02-08T03:30:43.695Z,23.00
2023-02-08T03:31:50.945Z,23.27
2023-02-08T03:33:00.735Z,24.53
2023-02-08T03:34:15.937Z,24.07
2023-02-08T03:35:31.824Z,25.60
2023-02-08T03:36:44.520Z,24.63
2023-02-08T03:39:09.390Z,24.60
2023-02-08T03:40:19.601Z,25.47
2023-02-08T03:41:29.177Z,24.67
2023-02-08T03:42:36.006Z,24.33
2023-02-08T03:43:45.464Z,23.94
2023-02-08T03:44:55.324Z,26.20
2023-02-08T03:46:23.295Z,25.06
2023-02-08T03:47:30.334Z,25.06
2023-02-08T03:48:37.457Z,25.44
2023-02-08T03:50:38.806Z,25.33
2023-02-08T03:51:03.219Z,27.20
2023-02-08T03:52:10.195Z,26.73
2023-02-08T03:53:17.254Z,24.13
2023-02-08T03:54:24.272Z,26.31
2023-02-08T03:55:31.346Z,25.20
2023-02-08T03:56:41.016Z,25.75
2023-02-08T03:57:47.943Z,25.81
2023-02-08T03:59:00.853Z,26.31
2023-02-08T04:00:10.884Z,25.87
2023-02-08T04:01:17.940Z,24.00
2023-02-08T04:02:24.397Z,25.87
2023-02-08T04:03:30.966Z,25.53
2023-02-08T04:04:38.355Z,26.75
2023-02-08T04:05:42.926Z,27.00
2023-02-08T04:06:47.230Z,26.00
2023-02-08T04:07:52.183Z,26.40
2023-02-08T04:08:56.132Z,26.07
2023-02-08T04:10:00.204Z,26.73
2023-02-08T04:11:04.287Z,27.67
2023-02-08T04:12:08.518Z,26.13
2023-02-08T04:13:12.491Z,25.62
2023-02-08T04:14:16.767Z,25.40
2023-02-08T04:15:20.717Z,26.73
2023-02-08T04:16:24.766Z,27.06
2023-02-08T04:17:28.663Z,21.20
2023-02-08T04:18:32.608Z,26.80
2023-02-08T04:19:36.531Z,26.67
2023-02-08T04:20:40.987Z,26.25
2023-02-08T04:21:45.138Z,25.67
2023-02-08T04:22:49.155Z,26.53
2023-02-08T04:23:53.193Z,25.60
2023-02-08T04:24:57.177Z,24.93
2023-02-08T04:26:01.153Z,25.27
2023-02-08T04:27:06.110Z,25.00
2023-02-08T04:28:10.270Z,25.62
2023-02-08T04:29:14.486Z,26.67
2023-02-08T04:30:18.830Z,25.37
2023-02-08T04:31:24.430Z,25.00
2023-02-08T04:32:28.582Z,27.27
2023-02-08T04:33:32.674Z,26.80
2023-02-08T04:34:36.542Z,26.53
2023-02-08T04:35:41.746Z,24.33
2023-02-08T04:36:45.862Z,25.69
2023-02-08T04:37:49.911Z,26.50
2023-02-08T04:38:54.035Z,26.07
2023-02-08T04:39:58.074Z,26.33
2023-02-08T04:41:02.090Z,25.67
2023-02-08T04:42:06.228Z,26.19
2023-02-08T04:43:10.281Z,22.20
2023-02-08T04:44:14.310Z,25.56
2023-02-08T04:45:18.576Z,25.93
2023-02-08T04:46:46.595Z,26.62
2023-02-08T04:47:50.564Z,26.27
2023-02-08T04:48:54.470Z,28.56
2023-02-08T04:49:58.418Z,35.47
2023-02-08T04:51:02.505Z,36.40
2023-02-08T04:52:06.413Z,32.80
2023-02-08T04:53:10.489Z,30.80
2023-02-08T04:54:14.330Z,38.20
2023-02-08T04:55:18.279Z,35.33
2023-02-08T04:56:22.256Z,31.47
2023-02-08T04:57:26.198Z,31.73
2023-02-08T04:58:30.024Z,29.40
2023-02-08T04:59:33.958Z,29.87
2023-02-08T05:00:40.037Z,28.20
2023-02-08T05:01:44.213Z,25.60
2023-02-08T05:02:48.139Z,29.20
2023-02-08T05:03:52.095Z,28.19
2023-02-08T05:04:56.019Z,26.33
2023-02-08T05:06:02.040Z,24.53
2023-02-08T05:07:06.029Z,27.27
2023-02-08T05:08:09.951Z,26.87
2023-02-08T05:09:13.830Z,26.73
2023-02-08T05:10:18.768Z,26.31
2023-02-08T05:11:24.784Z,27.33
2023-02-08T05:12:28.717Z,29.33
2023-02-08T05:13:32.692Z,24.73
2023-02-08T05:14:36.679Z,26.73
2023-02-08T05:15:42.243Z,25.62
2023-02-08T05:16:47.816Z,28.00
2023-02-08T05:17:51.798Z,26.80
2023-02-08T05:18:58.876Z,27.50
2023-02-08T05:20:03.713Z,27.27
2023-02-08T05:21:08.397Z,28.53
2023-02-08T05:22:18.299Z,28.87
2023-02-08T05:23:22.401Z,29.80
2023-02-08T05:24:26.352Z,32.00
2023-02-08T05:25:31.890Z,28.93
2023-02-08T05:26:39.166Z,28.73
2023-02-08T05:27:43.086Z,27.93
2023-02-08T05:28:47.061Z,27.80
2023-02-08T05:29:50.987Z,29.07
2023-02-08T05:30:55.181Z,28.07
2023-02-08T05:31:59.299Z,28.80
2023-02-08T05:33:03.229Z,29.67
2023-02-08T05:34:07.245Z,27.00
2023-02-08T05:35:11.207Z,26.87
2023-02-08T05:36:15.208Z,27.93
2023-02-08T05:37:19.161Z,28.94
2023-02-08T05:38:23.007Z,27.93
2023-02-08T05:39:26.866Z,25.27
2023-02-08T05:40:30.961Z,27.19
2023-02-08T05:41:34.872Z,27.33
2023-02-08T05:42:38.892Z,26.47
2023-02-08T05:43:42.996Z,27.87
2023-02-08T05:44:47.008Z,26.67
2023-02-08T05:45:51.694Z,28.47
2023-02-08T05:46:55.626Z,26.00
2023-02-08T05:47:59.609Z,26.60
2023-02-08T05:49:04.107Z,27.40
2023-02-08T05:50:08.556Z,29.60
2023-02-08T05:51:12.468Z,26.93
2023-02-08T05:52:16.378Z,27.27
2023-02-08T05:53:21.370Z,27.13
2023-02-08T05:54:26.521Z,26.53
2023-02-08T05:55:30.518Z,26.27
2023-02-08T05:56:34.524Z,26.19
2023-02-08T05:57:38.480Z,28.13
2023-02-08T05:58:42.495Z,27.00
2023-02-08T05:59:46.483Z,26.87
2023-02-08T06:00:50.565Z,28.33
2023-02-08T06:01:54.520Z,27.40
2023-02-08T06:02:59.118Z,26.87
2023-02-08T06:04:03.337Z,27.93
2023-02-08T06:05:07.865Z,28.80
2023-02-08T06:06:12.385Z,28.13
2023-02-08T06:07:16.650Z,27.93
2023-02-08T06:08:20.520Z,28.47
2023-02-08T06:09:24.552Z,30.47
2023-02-08T06:10:28.558Z,27.33
2023-02-08T06:11:32.452Z,28.00
2023-02-08T06:12:36.420Z,28.07
2023-02-08T06:13:40.453Z,26.27
2023-02-08T06:14:44.425Z,29.56
2023-02-08T06:15:48.382Z,27.80
2023-02-08T06:16:52.403Z,29.87
2023-02-08T06:17:56.763Z,29.40
2023-02-08T06:19:00.929Z,27.47
2023-02-08T06:20:05.656Z,27.73
2023-02-08T06:21:13.593Z,26.50
2023-02-08T06:22:19.157Z,25.87
2023-02-08T06:23:23.940Z,26.47
2023-02-08T06:24:28.070Z,26.60
2023-02-08T06:25:32.171Z,28.33
2023-02-08T06:26:36.241Z,28.00
2023-02-08T06:27:40.212Z,29.20
2023-02-08T06:28:44.102Z,20.73
2023-02-08T06:29:48.126Z,27.13
2023-02-08T06:30:52.931Z,28.33
2023-02-08T06:31:57.064Z,27.93
2023-02-08T06:33:01.135Z,27.13
2023-02-08T06:34:08.161Z,25.47
2023-02-08T06:35:12.970Z,27.81
2023-02-08T06:36:18.869Z,30.80
2023-02-08T06:37:23.009Z,26.33
2023-02-08T06:38:27.077Z,28.07
2023-02-08T06:39:31.033Z,26.60
2023-02-08T06:40:35.057Z,27.62
2023-02-08T06:41:38.969Z,27.13
2023-02-08T06:42:43.011Z,28.87
2023-02-08T06:43:47.077Z,27.80
2023-02-08T06:44:55.168Z,27.20
2023-02-08T06:45:56.841Z,26.73
2023-02-08T06:47:00.960Z,26.60
2023-02-08T06:48:05.203Z,28.67
2023-02-08T06:49:09.190Z,25.60
2023-02-08T06:50:13.291Z,27.31
2023-02-08T06:51:17.266Z,26.06
2023-02-08T06:52:22.059Z,24.75
2023-02-08T06:53:26.025Z,27.00
2023-02-08T06:54:30.067Z,25.47
2023-02-08T06:55:34.155Z,26.73
2023-02-08T06:56:38.276Z,27.31
2023-02-08T06:57:42.397Z,26.20
2023-02-08T06:58:46.415Z,25.67
2023-02-08T06:59:50.384Z,26.50
2023-02-08T07:00:54.461Z,27.80
2023-02-08T07:02:01.108Z,27.94
2023-02-08T07:03:04.132Z,26.62
2023-02-08T07:04:08.154Z,27.56
2023-02-08T07:05:12.216Z,25.87
2023-02-08T07:06:19.677Z,26.07
2023-02-08T07:07:23.732Z,26.40
2023-02-08T07:08:27.731Z,26.73
2023-02-08T07:09:33.271Z,26.81
2023-02-08T07:10:40.123Z,23.60
2023-02-08T07:11:44.788Z,25.56
2023-02-08T07:12:48.709Z,26.12
2023-02-08T07:13:53.203Z,26.81
2023-02-08T07:14:57.127Z,24.60
2023-02-08T07:16:01.170Z,26.37
2023-02-08T07:17:05.850Z,27.06
2023-02-08T07:18:09.823Z,26.12
2023-02-08T07:19:13.752Z,27.00
2023-02-08T07:20:17.997Z,25.56
2023-02-08T07:21:22.033Z,25.47
2023-02-08T07:22:25.961Z,25.73
2023-02-08T07:23:29.825Z,26.33
2023-02-08T07:24:35.055Z,25.37
2023-02-08T07:25:38.998Z,25.44
2023-02-08T07:26:43.045Z,27.00
2023-02-08T07:27:46.918Z,26.00
2023-02-08T07:28:50.873Z,27.13
2023-02-08T07:29:55.037Z,25.93
2023-02-08T07:30:59.162Z,26.81
2023-02-08T07:32:06.724Z,26.56
2023-02-08T07:33:10.677Z,25.87
2023-02-08T07:34:14.688Z,26.25
2023-02-08T07:35:20.739Z,25.20
2023-02-08T07:36:24.374Z,26.12
2023-02-08T07:37:28.666Z,25.50
2023-02-08T07:38:34.190Z,25.67
2023-02-08T07:39:39.674Z,25.87
2023-02-08T07:40:43.864Z,25.31
2023-02-08T07:41:48.617Z,24.31
2023-02-08T07:42:53.981Z,24.40
2023-02-08T07:43:59.802Z,26.87
2023-02-08T07:45:05.760Z,23.53
2023-02-08T07:46:13.052Z,25.07
2023-02-08T07:47:21.068Z,27.19
2023-02-08T07:48:30.901Z,27.44
2023-02-08T07:49:49.360Z,27.44
2023-02-08T07:50:45.234Z,26.40
2023-02-08T07:51:49.530Z,26.56
2023-02-08T07:52:53.544Z,25.53
2023-02-08T07:53:59.349Z,26.44
2023-02-08T07:55:08.205Z,23.53
2023-02-08T07:56:14.488Z,27.25
2023-02-08T07:57:20.984Z,25.93
2023-02-08T07:58:24.713Z,27.44
2023-02-08T07:59:36.261Z,27.81
2023-02-08T08:00:42.386Z,26.50
2023-02-08T08:01:52.568Z,27.07
2023-02-08T08:02:56.836Z,27.56
2023-02-08T08:04:02.015Z,26.27
2023-02-08T08:05:06.308Z,26.94
2023-02-08T08:06:11.926Z,25.56
2023-02-08T08:07:18.718Z,25.93
2023-02-08T08:08:24.237Z,26.31
2023-02-08T08:09:28.387Z,10.13
2023-02-08T08:10:34.192Z,26.00
2023-02-08T08:11:39.703Z,26.00
2023-02-08T08:12:45.265Z,24.69
2023-02-08T08:13:52.643Z,26.07
2023-02-08T08:15:09.105Z,25.13
2023-02-08T08:16:11.577Z,25.62
2023-02-08T08:17:18.233Z,24.19
2023-02-08T08:18:38.481Z,25.69
2023-02-08T08:19:32.788Z,25.93
2023-02-08T08:20:40.896Z,24.63
2023-02-08T08:21:45.575Z,24.31
2023-02-08T08:22:49.600Z,24.67
2023-02-08T08:23:53.580Z,25.20
2023-02-08T08:24:59.037Z,26.27
2023-02-08T08:26:15.206Z,27.67
2023-02-08T08:27:21.251Z,27.33
2023-02-08T08:28:25.131Z,27.53
2023-02-08T08:29:31.286Z,29.56
2023-02-08T08:30:38.626Z,27.13
2023-02-08T08:31:44.406Z,25.67
2023-02-08T08:32:48.780Z,27.94
2023-02-08T08:34:01.112Z,25.27
2023-02-08T08:35:15.611Z,25.19
2023-02-08T08:36:21.301Z,26.75
2023-02-08T08:37:26.686Z,25.87
2023-02-08T08:38:30.856Z,26.93
2023-02-08T08:39:36.572Z,27.13
2023-02-08T08:40:42.469Z,26.53
2023-02-08T08:41:48.520Z,25.80
2023-02-08T08:42:55.000Z,25.60
2023-02-08T08:44:01.150Z,25.13
2023-02-08T08:45:05.193Z,26.37
2023-02-08T08:46:10.188Z,24.75
2023-02-08T08:47:18.376Z,26.07
2023-02-08T08:48:21.471Z,24.20
2023-02-08T08:49:27.451Z,25.19
2023-02-08T08:50:31.802Z,25.53
2023-02-08T08:51:35.922Z,25.12
2023-02-08T08:52:39.890Z,22.56
2023-02-08T08:53:45.573Z,20.75
2023-02-08T08:54:49.807Z,23.25
2023-02-08T08:55:53.827Z,23.69
2023-02-08T08:56:57.992Z,25.00
2023-02-08T08:58:03.548Z,19.94
2023-02-08T08:59:10.051Z,23.53
2023-02-08T09:00:20.405Z,21.31
2023-02-08T09:01:24.863Z,23.53
2023-02-08T09:02:29.004Z,23.62
2023-02-08T09:03:33.214Z,22.31
2023-02-08T09:04:37.456Z,22.00
2023-02-08T09:05:43.116Z,23.07
2023-02-08T09:06:47.331Z,22.62
2023-02-08T09:07:51.394Z,23.69
2023-02-08T09:08:55.426Z,24.44
2023-02-08T09:09:59.355Z,24.40
2023-02-08T09:11:12.600Z,24.06
2023-02-08T09:12:18.258Z,24.27
2023-02-08T09:13:23.964Z,22.50
2023-02-08T09:14:28.336Z,21.93
2023-02-08T09:15:34.121Z,23.25
2023-02-08T09:16:45.918Z,23.31
2023-02-08T09:17:51.503Z,21.50
2023-02-08T09:18:58.835Z,22.06
2023-02-08T09:20:04.961Z,22.80
2023-02-08T09:21:14.210Z,23.00
2023-02-08T09:22:21.588Z,21.81
2023-02-08T09:23:25.916Z,19.47
2023-02-08T09:24:30.005Z,21.25
2023-02-08T09:25:34.029Z,21.06
2023-02-08T09:26:39.005Z,21.00
2023-02-08T09:27:46.139Z,22.50
2023-02-08T09:28:50.350Z,21.75
2023-02-08T09:29:54.413Z,22.00
2023-02-08T09:31:00.228Z,15.44
2023-02-08T09:32:04.505Z,22.00
2023-02-08T09:33:08.847Z,23.00
2023-02-08T09:34:17.754Z,21.75
2023-02-08T09:35:23.168Z,17.06
2023-02-08T09:36:31.947Z,19.31
2023-02-08T09:37:42.020Z,22.00
2023-02-08T09:38:52.108Z,22.25
2023-02-08T09:40:08.732Z,21.94
2023-02-08T09:41:24.509Z,21.75
2023-02-08T09:42:44.745Z,22.19
2023-02-08T09:44:09.522Z,22.75
2023-02-08T09:45:28.137Z,22.75
2023-02-08T09:46:36.349Z,21.94
2023-02-08T09:47:57.703Z,19.56
2023-02-08T09:49:06.127Z,22.73
2023-02-08T09:50:38.618Z,22.73
2023-02-08T09:51:45.819Z,23.56
2023-02-08T09:53:13.812Z,20.94
2023-02-08T09:54:35.606Z,21.00
2023-02-08T09:55:42.510Z,21.80
2023-02-08T09:56:51.015Z,19.60
2023-02-08T09:57:59.331Z,21.50
2023-02-08T09:59:03.573Z,22.19
2023-02-08T10:02:27.337Z,23.81
2023-02-08T10:03:34.485Z,17.40
2023-02-08T10:04:44.614Z,18.37
2023-02-08T10:05:48.690Z,21.80
2023-02-08T10:06:52.941Z,22.56
2023-02-08T10:07:57.271Z,24.40
2023-02-08T10:09:04.309Z,26.00
2023-02-08T10:10:14.647Z,23.62
2023-02-08T10:11:32.073Z,24.00
2023-02-08T10:12:56.944Z,32.67
2023-02-08T10:14:10.295Z,25.62
2023-02-08T10:15:35.098Z,24.56
2023-02-08T10:16:51.077Z,19.53
2023-02-08T10:18:04.023Z,22.19
2023-02-08T10:19:16.574Z,21.62
2023-02-08T10:20:44.878Z,18.50
2023-02-08T10:22:00.944Z,21.12
2023-02-08T10:23:28.414Z,21.00
2023-02-08T10:24:47.201Z,22.13
2023-02-08T10:26:03.481Z,23.40
2023-02-08T10:27:20.229Z,23.53
2023-02-08T10:28:30.628Z,23.06
2023-02-08T10:30:02.992Z,20.88
2023-02-08T10:31:18.916Z,22.44
2023-02-08T10:32:37.773Z,21.87
2023-02-08T10:33:44.830Z,19.37
2023-02-08T10:34:56.618Z,21.56
2023-02-08T10:36:00.386Z,19.50
2023-02-08T10:37:19.248Z,21.00
2023-02-08T10:38:45.277Z,19.75
2023-02-08T10:39:39.890Z,19.67
2023-02-08T10:40:45.438Z,20.31
2023-02-08T10:41:52.654Z,20.19
2023-02-08T10:43:02.891Z,20.37
2023-02-08T10:44:18.893Z,19.81
2023-02-08T10:45:31.634Z,18.69
2023-02-08T10:46:50.434Z,16.62
2023-02-08T10:47:59.310Z,18.62
2023-02-08T10:49:18.573Z,18.69
2023-02-08T10:50:37.996Z,17.73
2023-02-08T10:51:43.009Z,15.13
2023-02-08T10:52:50.633Z,17.53
2023-02-08T10:53:56.033Z,14.19
2023-02-08T10:55:02.148Z,17.87
2023-02-08T10:56:06.676Z,19.19
2023-02-08T10:57:23.052Z,20.69
2023-02-08T10:58:27.379Z,18.40
2023-02-08T10:59:51.304Z,14.38
2023-02-08T11:00:56.569Z,11.31
2023-02-08T11:02:00.767Z,18.62
2023-02-08T11:03:10.581Z,15.69
2023-02-08T11:04:16.099Z,16.87
2023-02-08T11:05:23.072Z,18.12
2023-02-08T11:06:28.249Z,17.62
2023-02-08T11:07:36.071Z,17.44
2023-02-08T11:08:42.371Z,18.94
2023-02-08T11:09:46.596Z,10.94
2023-02-08T11:11:02.780Z,14.44
2023-02-08T11:12:08.453Z,15.19
2023-02-08T11:13:20.879Z,15.60
2023-02-08T11:14:40.972Z,14.25
2023-02-08T11:15:56.924Z,14.19
2023-02-08T11:17:01.322Z,14.69
2023-02-08T11:18:08.620Z,12.75
2023-02-08T11:19:21.273Z,11.27
2023-02-08T11:20:32.489Z,12.19
2023-02-08T11:21:39.611Z,13.19
2023-02-08T11:22:46.189Z,14.38
2023-02-08T11:23:53.041Z,16.50
2023-02-08T11:25:05.007Z,13.75
2023-02-08T11:26:27.184Z,14.31
2023-02-08T11:27:38.977Z,18.62
2023-02-08T11:28:43.868Z,19.06
2023-02-08T11:29:47.969Z,17.80
2023-02-08T11:31:00.883Z,18.56
2023-02-08T11:32:17.138Z,16.75
2023-02-08T11:33:21.300Z,19.94
2023-02-08T11:34:29.895Z,16.81
2023-02-08T11:35:34.158Z,14.56
2023-02-08T11:36:46.912Z,19.37
2023-02-08T11:37:58.075Z,18.75
2023-02-08T11:39:21.247Z,19.62
2023-02-08T11:40:39.920Z,20.12
2023-02-08T11:41:49.434Z,19.87
2023-02-08T11:42:54.644Z,19.19
2023-02-08T11:44:06.755Z,16.80
2023-02-08T11:45:24.229Z,15.63
2023-02-08T11:46:31.429Z,20.06
2023-02-08T11:47:39.780Z,17.94
2023-02-08T11:48:52.434Z,16.69
2023-02-08T11:49:59.732Z,15.63
2023-02-08T11:51:04.756Z,19.56
2023-02-08T11:53:48.362Z,19.62
2023-02-08T11:54:53.841Z,21.37
2023-02-08T11:56:18.837Z,21.19
2023-02-08T11:57:27.272Z,17.13
2023-02-08T11:58:32.350Z,21.20
2023-02-08T11:59:36.580Z,19.31
2023-02-08T12:00:41.721Z,18.93
2023-02-08T12:01:45.896Z,16.06
2023-02-08T12:02:51.458Z,19.50
2023-02-08T12:03:58.358Z,20.00
2023-02-08T12:05:03.299Z,19.87
2023-02-08T12:06:27.308Z,18.00
2023-02-08T12:07:39.717Z,16.73
2023-02-08T12:09:09.206Z,16.44
2023-02-08T12:10:38.063Z,18.87
2023-02-08T12:11:48.759Z,17.87
2023-02-08T12:12:55.830Z,18.19
2023-02-08T12:14:02.855Z,18.56
2023-02-08T12:15:45.028Z,18.50
2023-02-08T12:16:53.645Z,16.25
2023-02-08T12:18:06.468Z,14.56
2023-02-08T12:20:48.723Z,15.88
2023-02-08T12:21:55.684Z,15.63
2023-02-08T12:23:08.739Z,16.81
2023-02-08T12:24:24.351Z,20.60
2023-02-08T12:25:36.788Z,20.19
2023-02-08T12:27:01.596Z,18.73
2023-02-08T12:28:17.397Z,14.44
2023-02-08T12:29:24.410Z,16.25
2023-02-08T12:30:43.917Z,17.75
2023-02-08T12:31:59.795Z,17.94
2023-02-08T12:33:23.487Z,15.73
2023-02-08T12:35:07.040Z,15.25
2023-02-08T12:36:14.385Z,17.25
2023-02-08T12:37:27.479Z,16.25
2023-02-08T12:38:40.289Z,13.75
2023-02-08T12:39:55.888Z,16.31
2023-02-08T12:41:23.731Z,16.13
2023-02-08T12:42:36.388Z,18.20
2023-02-08T12:43:52.153Z,15.06
2023-02-08T12:45:02.120Z,19.00
2023-02-08T12:46:09.415Z,17.20
2023-02-08T12:47:22.171Z,17.87
2023-02-08T12:48:45.374Z,15.94
2023-02-08T12:50:04.473Z,13.69
2023-02-08T12:51:11.491Z,10.94
2023-02-08T12:52:24.639Z,12.06
2023-02-08T12:53:31.632Z,15.63
2023-02-08T12:54:55.082Z,13.75
2023-02-08T12:56:02.176Z,16.00
2023-02-08T12:57:07.636Z,16.50
2023-02-08T12:58:26.543Z,16.19
2023-02-08T12:59:36.302Z,16.37
2023-02-08T13:00:43.718Z,13.93
2023-02-08T13:01:50.470Z,15.88
2023-02-08T13:03:03.535Z,18.06
2023-02-08T13:04:13.370Z,15.88
2023-02-08T13:05:20.611Z,16.12
2023-02-08T13:06:27.913Z,16.27
2023-02-08T13:07:38.189Z,15.50
2023-02-08T13:08:59.381Z,15.06
2023-02-08T13:10:09.263Z,16.69
2023-02-08T13:11:20.281Z,15.31
2023-02-08T13:12:30.626Z,14.06
2023-02-08T13:13:37.663Z,14.13
2023-02-08T13:14:44.734Z,15.38
2023-02-08T13:16:10.060Z,13.69
2023-02-08T13:17:26.659Z,16.31
2023-02-08T13:18:39.501Z,13.50
2023-02-08T13:19:58.130Z,17.87
2023-02-08T13:20:57.946Z,13.38
2023-02-08T13:22:05.049Z,14.94
2023-02-08T13:23:33.416Z,18.31
2023-02-08T13:24:44.075Z,16.81
2023-02-08T13:25:50.918Z,14.13
2023-02-08T13:26:55.010Z,14.87
2023-02-08T13:28:04.575Z,13.69
2023-02-08T13:29:11.734Z,17.94
2023-02-08T13:30:22.574Z,18.19
2023-02-08T13:31:35.630Z,17.37
2023-02-08T13:32:45.528Z,17.56
2023-02-08T13:34:04.415Z,13.27
2023-02-08T13:35:23.140Z,15.81
2023-02-08T13:36:32.875Z,19.53
2023-02-08T13:37:37.482Z,19.50
2023-02-08T13:38:44.917Z,15.00
2023-02-08T13:39:49.720Z,17.37
2023-02-08T13:41:08.485Z,18.25
2023-02-08T13:42:30.375Z,19.69
2023-02-08T13:43:46.074Z,15.50
2023-02-08T13:44:53.204Z,17.56
2023-02-08T13:46:00.185Z,16.87
2023-02-08T13:47:07.609Z,18.00
2023-02-08T13:48:17.281Z,19.40
2023-02-08T13:49:43.920Z,18.67
2023-02-08T13:50:52.716Z,20.50
2023-02-08T13:51:56.687Z,21.31
2023-02-08T13:53:01.714Z,21.13
2023-02-08T13:54:11.498Z,21.06
2023-02-08T13:55:33.588Z,18.06
2023-02-08T13:56:46.937Z,19.00
2023-02-08T13:57:56.035Z,21.44
2023-02-08T13:59:01.544Z,19.87
2023-02-08T14:00:24.092Z,21.53
2023-02-08T14:01:30.901Z,21.73
2023-02-08T14:02:34.873Z,21.00
2023-02-08T14:03:38.921Z,18.75
2023-02-08T14:04:44.651Z,18.50
2023-02-08T14:06:00.637Z,20.40
2023-02-08T14:07:13.553Z,18.60
2023-02-08T14:08:26.390Z,17.44
2023-02-08T14:09:51.142Z,20.88
2023-02-08T14:11:06.884Z,23.75
2023-02-08T14:12:22.630Z,18.07
2023-02-08T14:13:35.503Z,23.19
2023-02-08T14:14:40.192Z,20.06
2023-02-08T14:15:45.159Z,13.88
2023-02-08T14:17:11.830Z,18.93
2023-02-08T14:18:24.605Z,20.62
2023-02-08T14:19:28.688Z,20.31
2023-02-08T14:20:35.650Z,20.44
2023-02-08T14:21:45.348Z,19.94
2023-02-08T14:22:54.850Z,18.69
2023-02-08T14:24:07.646Z,20.94
2023-02-08T14:25:23.474Z,20.37
2023-02-08T14:26:30.107Z,18.00
2023-02-08T14:27:40.012Z,20.27
2023-02-08T14:28:46.726Z,21.56
2023-02-08T14:30:05.540Z,20.53
2023-02-08T14:31:12.705Z,20.75
2023-02-08T14:32:28.046Z,17.33
2023-02-08T14:33:37.851Z,21.44
2023-02-08T14:34:42.237Z,21.62
2023-02-08T14:35:51.673Z,23.00
2023-02-08T14:37:20.179Z,21.62
2023-02-08T14:38:27.069Z,22.75
2023-02-08T14:39:33.968Z,23.44
2023-02-08T14:40:58.213Z,24.13
2023-02-08T14:42:06.919Z,25.81
2023-02-08T14:43:24.210Z,23.94
2023-02-08T14:44:45.445Z,27.67
2023-02-08T14:45:52.149Z,28.47
2023-02-08T14:46:56.190Z,28.38
2023-02-08T14:48:06.257Z,25.60
2023-02-08T14:49:18.044Z,25.50